Time;durP1;ratioP1;P1;durP2;ratioP2;P2;SDS_P1;SDS_P2;PMS_P1;PMS_P2;Temp;Humidity;BMP_temperature;BMP_pressure;BME280_temperature;BME280_humidity;BME280_pressure;Samples;Min_cycle;Max_cycle;Signal;HPM_P1;HPM_P2
2021/05/09 00:00:55;;;;;;;4.32;1.40;;;15.00;99.90;;;;;;2083483;28;20055;-68
2021/05/09 00:01:56;;;;;;;2.28;1.40;;;15.00;99.90;;;;;;2087132;28;20129;-67
2021/05/09 00:02:56;;;;;;;1.50;1.30;;;15.00;99.90;;;;;;2087195;28;20025;-68
2021/05/09 00:03:57;;;;;;;2.13;1.70;;;15.00;99.90;;;;;;2087671;28;20104;-68
2021/05/09 00:04:57;;;;;;;3.35;1.60;;;15.00;99.90;;;;;;2083402;28;20037;-68
2021/05/09 00:05:58;;;;;;;2.47;1.35;;;15.00;99.90;;;;;;2087839;28;20032;-68
2021/05/09 00:06:59;;;;;;;1.20;1.10;;;15.00;99.90;;;;;;2086675;28;20039;-67
2021/05/09 00:07:59;;;;;;;1.40;1.25;;;15.00;99.90;;;;;;2088277;28;20082;-68
2021/05/09 00:09:00;;;;;;;2.97;1.30;;;14.90;99.90;;;;;;2088270;28;20104;-68
2021/05/09 00:10:01;;;;;;;1.55;1.23;;;15.00;99.90;;;;;;2088374;28;20051;-68
2021/05/09 00:11:01;;;;;;;2.97;1.65;;;14.90;99.90;;;;;;2088396;28;20036;-67
2021/05/09 00:12:03;;;;;;;2.05;1.50;;;14.90;99.90;;;;;;2088011;28;20057;-68
2021/05/09 00:13:04;;;;;;;1.48;1.27;;;14.90;99.90;;;;;;2088077;28;20395;-67
2021/05/09 00:14:04;;;;;;;1.45;1.30;;;14.90;99.90;;;;;;2087924;28;20037;-68
2021/05/09 00:15:08;;;;;;;1.92;1.23;;;14.90;99.90;;;;;;2088228;28;20023;-67
2021/05/09 00:16:09;;;;;;;2.53;1.40;;;14.90;99.90;;;;;;2088211;28;20504;-67
2021/05/09 00:17:10;;;;;;;4.13;1.77;;;14.90;99.90;;;;;;2088203;28;20032;-67
2021/05/09 00:18:10;;;;;;;2.55;1.45;;;14.90;99.90;;;;;;2088135;28;20480;-68
2021/05/09 00:19:11;;;;;;;1.98;1.42;;;14.90;99.90;;;;;;2088441;28;20021;-68
2021/05/09 00:20:12;;;;;;;1.92;1.50;;;14.90;99.90;;;;;;2088207;28;20021;-68
2021/05/09 00:21:13;;;;;;;2.70;1.30;;;14.90;99.90;;;;;;2088061;28;20067;-68
2021/05/09 00:22:14;;;;;;;1.88;1.30;;;14.80;99.90;;;;;;2079258;28;20033;-68
2021/05/09 00:23:14;;;;;;;1.85;1.30;;;14.90;99.90;;;;;;2081972;28;20396;-68
2021/05/09 00:24:15;;;;;;;2.15;1.40;;;14.80;99.90;;;;;;2087571;28;20036;-68
2021/05/09 00:25:16;;;;;;;2.50;1.30;;;14.90;99.90;;;;;;2087357;28;20037;-68
2021/05/09 00:26:16;;;;;;;2.78;1.52;;;14.90;99.90;;;;;;2087653;28;20021;-68
2021/05/09 00:27:17;;;;;;;2.15;1.60;;;14.80;99.90;;;;;;2088217;28;20566;-67
2021/05/09 00:28:17;;;;;;;2.40;1.50;;;14.80;99.90;;;;;;2088310;28;20350;-67
2021/05/09 00:29:18;;;;;;;3.13;1.52;;;14.80;99.90;;;;;;2088097;28;20480;-67
2021/05/09 00:30:19;;;;;;;3.05;1.50;;;14.80;99.90;;;;;;2088153;28;20021;-68
2021/05/09 00:31:20;;;;;;;1.40;1.30;;;14.80;99.90;;;;;;2087802;28;20071;-68
2021/05/09 00:32:20;;;;;;;2.78;1.20;;;14.80;99.90;;;;;;2087425;28;20029;-67
2021/05/09 00:33:21;;;;;;;1.60;1.42;;;14.80;99.90;;;;;;2088174;28;20017;-68
2021/05/09 00:34:21;;;;;;;3.08;1.67;;;14.80;99.90;;;;;;2088280;28;20092;-68
2021/05/09 00:35:22;;;;;;;3.22;1.58;;;14.80;99.90;;;;;;2082667;28;20014;-68
2021/05/09 00:36:26;;;;;;;2.28;1.30;;;14.80;99.90;;;;;;2080054;28;20014;-68
2021/05/09 00:37:26;;;;;;;2.35;1.65;;;14.80;99.90;;;;;;2079526;28;20033;-68
2021/05/09 00:38:27;;;;;;;1.40;1.30;;;14.80;99.90;;;;;;2088145;28;20029;-67
2021/05/09 00:39:27;;;;;;;2.60;1.50;;;14.80;99.90;;;;;;2087862;28;20040;-68
2021/05/09 00:40:28;;;;;;;1.65;1.55;;;14.70;99.90;;;;;;2088244;28;20036;-68
2021/05/09 00:41:28;;;;;;;1.35;1.23;;;14.80;99.90;;;;;;2087844;28;20048;-68
2021/05/09 00:42:29;;;;;;;2.22;1.85;;;14.80;99.90;;;;;;2087480;28;20048;-68
2021/05/09 00:43:29;;;;;;;2.05;1.23;;;14.70;99.90;;;;;;2087999;28;20040;-67
2021/05/09 00:44:30;;;;;;;2.35;2.00;;;14.70;99.90;;;;;;2085458;28;20025;-68
2021/05/09 00:45:31;;;;;;;2.72;1.45;;;14.70;99.90;;;;;;2079813;28;20037;-68
2021/05/09 00:46:31;;;;;;;2.55;1.70;;;14.70;99.90;;;;;;2079911;28;20461;-67
2021/05/09 00:47:32;;;;;;;1.85;1.38;;;14.70;99.90;;;;;;2082747;28;20056;-67
2021/05/09 00:48:36;;;;;;;6.63;1.70;;;14.70;99.90;;;;;;2088302;28;20033;-67
2021/05/09 00:49:37;;;;;;;3.58;1.63;;;14.70;99.90;;;;;;2087875;28;20025;-68
2021/05/09 00:50:39;;;;;;;2.38;1.60;;;14.70;99.90;;;;;;2086224;28;20043;-68
2021/05/09 00:51:40;;;;;;;1.75;1.33;;;14.70;99.90;;;;;;2079661;28;20037;-68
2021/05/09 00:52:43;;;;;;;1.77;1.35;;;14.70;99.90;;;;;;2084316;28;20025;-68
2021/05/09 00:53:45;;;;;;;3.08;1.60;;;14.70;99.90;;;;;;2081579;28;20095;-68
2021/05/09 00:55:02;;;;;;;1.85;1.20;;;14.70;99.90;;;;;;2087958;28;20028;-68
2021/05/09 00:56:04;;;;;;;3.22;1.52;;;14.70;99.90;;;;;;2085349;28;20115;-67
2021/05/09 00:57:06;;;;;;;1.77;1.23;;;14.60;99.90;;;;;;2087893;28;20057;-67
2021/05/09 00:58:08;;;;;;;3.05;1.63;;;14.60;99.90;;;;;;2087486;28;20029;-67
2021/05/09 00:59:11;;;;;;;1.98;1.50;;;14.60;99.90;;;;;;2088009;28;20070;-67
2021/05/09 01:00:14;;;;;;;3.35;1.63;;;14.70;99.90;;;;;;2087860;28;20025;-68
2021/05/09 01:01:17;;;;;;;2.15;1.33;;;14.60;99.90;;;;;;2079626;28;20083;-68
2021/05/09 01:02:18;;;;;;;1.88;1.30;;;14.60;99.90;;;;;;2083141;28;20384;-67
2021/05/09 01:03:26;;;;;;;1.90;1.52;;;14.60;99.90;;;;;;2088064;28;20029;-68
2021/05/09 01:04:27;;;;;;;2.03;1.65;;;14.60;99.90;;;;;;2087962;28;20060;-67
2021/05/09 01:05:28;;;;;;;1.83;1.38;;;14.60;99.90;;;;;;2087854;28;20044;-68
2021/05/09 01:06:31;;;;;;;1.40;1.30;;;14.60;99.90;;;;;;2087525;28;20040;-68
2021/05/09 01:07:33;;;;;;;2.20;1.60;;;14.60;99.90;;;;;;2087461;28;20112;-68
2021/05/09 01:08:35;;;;;;;2.90;1.52;;;14.60;99.90;;;;;;2088016;28;20028;-68
2021/05/09 01:09:36;;;;;;;1.80;1.70;;;14.60;99.90;;;;;;2087900;28;20360;-68
2021/05/09 01:10:36;;;;;;;2.58;1.70;;;14.60;99.90;;;;;;2085485;28;20041;-68
2021/05/09 01:11:37;;;;;;;1.83;1.50;;;14.60;99.90;;;;;;2087694;28;20476;-67
2021/05/09 01:12:38;;;;;;;3.72;1.65;;;14.60;99.90;;;;;;2086307;28;20029;-67
2021/05/09 01:13:38;;;;;;;1.77;1.60;;;14.60;99.90;;;;;;2087210;28;20032;-67
2021/05/09 01:14:40;;;;;;;1.92;1.70;;;14.60;99.90;;;;;;2087766;28;20140;-67
2021/05/09 01:15:41;;;;;;;2.15;1.73;;;14.60;99.90;;;;;;2087741;28;20017;-67
2021/05/09 01:16:43;;;;;;;2.92;1.55;;;14.60;99.90;;;;;;2087697;28;20453;-68
2021/05/09 01:17:44;;;;;;;5.13;1.55;;;14.60;99.90;;;;;;2087927;28;20472;-67
2021/05/09 01:18:44;;;;;;;1.67;1.58;;;14.60;99.90;;;;;;2087411;28;20455;-68
2021/05/09 01:19:45;;;;;;;1.20;1.10;;;14.60;99.90;;;;;;2087895;28;20020;-68
2021/05/09 01:20:46;;;;;;;1.33;1.20;;;14.60;99.90;;;;;;2087452;28;20555;-68
2021/05/09 01:21:47;;;;;;;4.55;1.45;;;14.50;99.90;;;;;;2087802;28;20104;-68
2021/05/09 01:22:47;;;;;;;1.88;1.27;;;14.60;99.90;;;;;;2080369;28;20022;-67
2021/05/09 01:23:48;;;;;;;1.52;1.40;;;14.60;99.90;;;;;;2087118;28;20032;-68
2021/05/09 01:24:48;;;;;;;1.88;1.27;;;14.50;99.90;;;;;;2087449;28;20032;-68
2021/05/09 01:25:58;;;;;;;3.95;1.58;;;14.60;99.90;;;;;;2087785;28;20094;-68
2021/05/09 01:26:59;;;;;;;3.40;1.75;;;14.50;99.90;;;;;;2075829;28;20071;-68
2021/05/09 01:28:00;;;;;;;1.67;1.50;;;14.50;99.90;;;;;;2079296;28;20021;-68
2021/05/09 01:29:01;;;;;;;2.50;1.48;;;14.60;99.90;;;;;;2079231;28;20019;-68
2021/05/09 01:30:03;;;;;;;1.67;1.40;;;14.50;99.90;;;;;;2084847;28;20031;-68
2021/05/09 01:31:03;;;;;;;3.20;1.60;;;14.50;99.90;;;;;;2081018;28;20384;-68
2021/05/09 01:32:06;;;;;;;1.75;1.42;;;14.60;99.90;;;;;;2087062;28;20199;-68
2021/05/09 01:33:06;;;;;;;1.90;1.55;;;14.60;99.90;;;;;;2087259;28;20457;-68
2021/05/09 01:34:07;;;;;;;1.58;1.48;;;14.60;99.90;;;;;;2087118;28;20086;-67
2021/05/09 01:35:08;;;;;;;1.75;1.30;;;14.60;99.90;;;;;;2082289;28;20022;-67
2021/05/09 01:36:09;;;;;;;1.33;1.23;;;14.50;99.90;;;;;;2082038;28;20018;-67
2021/05/09 01:37:10;;;;;;;2.20;1.65;;;14.50;99.90;;;;;;2075989;28;20079;-67
2021/05/09 01:38:10;;;;;;;3.05;1.50;;;14.50;99.90;;;;;;2079103;28;20093;-68
2021/05/09 01:39:11;;;;;;;3.00;1.77;;;14.60;99.90;;;;;;2078388;28;20033;-67
2021/05/09 01:40:13;;;;;;;1.63;1.30;;;14.50;99.90;;;;;;2078750;28;20009;-68
2021/05/09 01:41:13;;;;;;;3.42;1.80;;;14.50;99.90;;;;;;2079283;28;20041;-68
2021/05/09 01:42:14;;;;;;;3.00;1.73;;;14.50;99.90;;;;;;2078917;28;20029;-67
2021/05/09 01:43:15;;;;;;;2.28;1.75;;;14.50;99.90;;;;;;2086709;28;20029;-67
2021/05/09 01:44:15;;;;;;;2.47;1.60;;;14.50;99.90;;;;;;2087807;28;20393;-67
2021/05/09 01:45:16;;;;;;;3.20;1.33;;;14.50;99.90;;;;;;2087527;28;20029;-67
2021/05/09 01:46:16;;;;;;;3.08;2.05;;;14.50;99.90;;;;;;2082049;28;20809;-67
2021/05/09 01:47:17;;;;;;;1.88;1.23;;;14.60;99.90;;;;;;2080051;28;20115;-67
2021/05/09 01:48:18;;;;;;;1.70;1.30;;;14.60;99.90;;;;;;2087687;28;20025;-67
2021/05/09 01:49:18;;;;;;;2.15;1.80;;;14.50;99.90;;;;;;2087294;28;20017;-68
2021/05/09 01:50:19;;;;;;;1.80;1.50;;;14.50;99.90;;;;;;2087514;28;20059;-67
2021/05/09 01:51:20;;;;;;;2.35;1.60;;;14.50;99.90;;;;;;2079927;28;20021;-68
2021/05/09 01:52:21;;;;;;;1.70;1.60;;;14.50;99.90;;;;;;2081267;28;20069;-67
2021/05/09 01:53:21;;;;;;;1.33;1.23;;;14.50;99.90;;;;;;2081520;28;20021;-67
2021/05/09 01:54:22;;;;;;;2.97;1.58;;;14.50;99.90;;;;;;2080491;28;20033;-67
2021/05/09 01:55:24;;;;;;;2.53;1.55;;;14.50;99.90;;;;;;2078817;28;20056;-67
2021/05/09 01:56:24;;;;;;;3.55;1.40;;;14.50;99.90;;;;;;2079210;28;20022;-68
2021/05/09 01:57:25;;;;;;;1.90;1.55;;;14.50;99.90;;;;;;2082997;28;20100;-68
2021/05/09 01:58:25;;;;;;;2.20;1.55;;;14.50;99.90;;;;;;2086894;28;20029;-67
2021/05/09 01:59:26;;;;;;;1.50;1.40;;;14.50;99.90;;;;;;2087433;28;20021;-67
2021/05/09 02:00:27;;;;;;;2.67;1.77;;;14.50;99.90;;;;;;2085813;28;20051;-67
2021/05/09 02:01:27;;;;;;;2.40;1.60;;;14.50;99.90;;;;;;2080360;28;20037;-67
2021/05/09 02:02:28;;;;;;;1.60;1.50;;;14.50;99.90;;;;;;2080068;28;20025;-68
2021/05/09 02:03:28;;;;;;;2.92;1.58;;;14.50;99.90;;;;;;2081259;28;20034;-67
2021/05/09 02:04:29;;;;;;;2.45;1.38;;;14.50;99.90;;;;;;2088386;28;20029;-67
2021/05/09 02:05:29;;;;;;;1.52;1.33;;;14.50;99.90;;;;;;2087861;28;20029;-68
2021/05/09 02:06:30;;;;;;;1.70;1.42;;;14.50;99.90;;;;;;2082852;28;20041;-68
2021/05/09 02:07:31;;;;;;;4.95;1.60;;;14.50;99.90;;;;;;2083324;28;20060;-68
2021/05/09 02:08:31;;;;;;;2.67;1.50;;;14.50;99.90;;;;;;2082540;28;20612;-67
2021/05/09 02:09:32;;;;;;;3.38;1.38;;;14.50;99.90;;;;;;2088951;28;20041;-68
2021/05/09 02:10:32;;;;;;;2.40;1.70;;;14.50;99.90;;;;;;2088504;28;20104;-68
2021/05/09 02:11:33;;;;;;;1.65;1.33;;;14.50;99.90;;;;;;2086469;28;20025;-68
2021/05/09 02:12:34;;;;;;;2.90;1.65;;;14.50;99.90;;;;;;2087901;28;20447;-68
2021/05/09 02:13:35;;;;;;;1.83;1.50;;;14.50;99.90;;;;;;2088587;28;20029;-68
2021/05/09 02:14:35;;;;;;;2.33;1.75;;;14.50;99.90;;;;;;2088581;28;20066;-67
2021/05/09 02:15:36;;;;;;;2.25;1.60;;;14.50;99.90;;;;;;2088503;28;20029;-68
2021/05/09 02:16:37;;;;;;;2.40;1.67;;;14.50;99.90;;;;;;2088378;28;20025;-68
2021/05/09 02:17:37;;;;;;;4.18;1.60;;;14.50;99.90;;;;;;2088880;28;20476;-67
2021/05/09 02:18:38;;;;;;;3.97;1.60;;;14.50;99.90;;;;;;2088484;28;20024;-68
2021/05/09 02:19:38;;;;;;;1.50;1.40;;;14.50;99.90;;;;;;2088466;28;20096;-68
2021/05/09 02:20:39;;;;;;;3.30;1.60;;;14.50;99.90;;;;;;2086784;28;20034;-68
2021/05/09 02:21:39;;;;;;;2.65;1.73;;;14.50;99.90;;;;;;2084007;28;20025;-68
2021/05/09 02:22:40;;;;;;;1.85;1.55;;;14.50;99.90;;;;;;2087858;28;20040;-68
2021/05/09 02:23:40;;;;;;;2.15;1.77;;;14.50;99.90;;;;;;2088464;28;20592;-68
2021/05/09 02:24:42;;;;;;;1.83;1.60;;;14.50;99.90;;;;;;2088367;28;20117;-68
2021/05/09 02:25:43;;;;;;;1.70;1.60;;;14.50;99.90;;;;;;2088648;28;20048;-68
2021/05/09 02:26:43;;;;;;;2.85;1.52;;;14.50;99.90;;;;;;2088707;28;20524;-68
2021/05/09 02:27:44;;;;;;;2.53;1.40;;;14.50;99.90;;;;;;2082302;28;20037;-68
2021/05/09 02:28:44;;;;;;;1.52;1.42;;;14.50;99.90;;;;;;2080703;28;20384;-67
2021/05/09 02:29:45;;;;;;;3.30;1.70;;;14.50;99.90;;;;;;2080376;28;20937;-67
2021/05/09 02:30:45;;;;;;;1.63;1.50;;;14.40;99.90;;;;;;2080162;28;20029;-67
2021/05/09 02:31:46;;;;;;;2.85;1.65;;;14.50;99.90;;;;;;2080327;28;20065;-68
2021/05/09 02:32:46;;;;;;;2.08;1.42;;;14.50;99.90;;;;;;2081196;28;20412;-68
2021/05/09 02:33:47;;;;;;;2.78;1.55;;;14.40;99.90;;;;;;2088694;28;20028;-68
2021/05/09 02:34:47;;;;;;;2.03;1.70;;;14.40;99.90;;;;;;2088083;28;20396;-68
2021/05/09 02:35:48;;;;;;;3.78;1.70;;;14.40;99.90;;;;;;2081566;28;20079;-67
2021/05/09 02:36:49;;;;;;;2.63;1.33;;;14.50;99.90;;;;;;2088679;28;20021;-67
2021/05/09 02:37:50;;;;;;;1.75;1.50;;;14.50;99.90;;;;;;2088297;28;20055;-67
2021/05/09 02:38:50;;;;;;;2.83;1.38;;;14.40;99.90;;;;;;2088594;28;20100;-67
2021/05/09 02:39:51;;;;;;;3.13;1.80;;;14.50;99.90;;;;;;2088458;28;20493;-67
2021/05/09 02:40:51;;;;;;;1.60;1.35;;;14.50;99.90;;;;;;2088514;28;20024;-68
2021/05/09 02:41:52;;;;;;;2.83;1.40;;;14.50;99.90;;;;;;2088483;28;20500;-67
2021/05/09 02:42:52;;;;;;;1.67;1.50;;;14.50;99.90;;;;;;2087142;28;20024;-67
2021/05/09 02:43:53;;;;;;;2.22;1.35;;;14.50;99.90;;;;;;2083356;28;20021;-68
2021/05/09 02:44:54;;;;;;;1.60;1.50;;;14.50;99.90;;;;;;2088341;28;20025;-67
2021/05/09 02:45:54;;;;;;;3.53;1.50;;;14.50;99.90;;;;;;2086519;28;20025;-67
2021/05/09 02:46:55;;;;;;;2.08;1.50;;;14.50;99.90;;;;;;2088795;28;20582;-67
2021/05/09 02:47:55;;;;;;;2.28;1.50;;;14.50;99.90;;;;;;2088147;28;20041;-67
2021/05/09 02:48:56;;;;;;;3.53;1.58;;;14.50;99.90;;;;;;2088470;28;20108;-67
2021/05/09 02:50:01;;;;;;;1.85;1.35;;;14.50;99.90;;;;;;2084822;28;20048;-68
2021/05/09 02:51:02;;;;;;;2.63;1.52;;;14.50;99.90;;;;;;2080429;28;20529;-67
2021/05/09 02:52:02;;;;;;;2.90;1.60;;;14.50;99.90;;;;;;2080207;28;20432;-67
2021/05/09 02:53:03;;;;;;;3.22;1.70;;;14.50;99.90;;;;;;2088068;28;20021;-67
2021/05/09 02:54:04;;;;;;;1.60;1.48;;;14.60;99.90;;;;;;2088398;28;20048;-67
2021/05/09 02:55:06;;;;;;;3.25;1.88;;;14.50;99.90;;;;;;2088331;28;20365;-67
2021/05/09 02:56:06;;;;;;;1.70;1.27;;;14.60;99.90;;;;;;2088214;28;20064;-67
2021/05/09 02:57:07;;;;;;;2.65;1.48;;;14.60;99.90;;;;;;2088510;28;20662;-67
2021/05/09 02:58:07;;;;;;;4.43;1.60;;;14.60;99.90;;;;;;2088473;28;20040;-67
2021/05/09 02:59:08;;;;;;;2.15;1.58;;;14.60;99.90;;;;;;2088611;28;20045;-68
2021/05/09 03:00:09;;;;;;;1.40;1.30;;;14.60;99.90;;;;;;2088434;28;20588;-68
2021/05/09 03:01:10;;;;;;;2.03;1.30;;;14.60;99.90;;;;;;2088432;28;20017;-68
2021/05/09 03:02:11;;;;;;;1.42;1.27;;;14.60;99.90;;;;;;2087023;28;20029;-67
2021/05/09 03:03:11;;;;;;;2.08;1.63;;;14.60;99.90;;;;;;2087446;28;20048;-67
2021/05/09 03:04:12;;;;;;;2.55;1.45;;;14.70;99.90;;;;;;2086169;28;20037;-68
2021/05/09 03:05:13;;;;;;;5.43;1.42;;;14.60;99.90;;;;;;2080930;28;20045;-67
2021/05/09 03:06:13;;;;;;;2.08;1.85;;;14.60;99.90;;;;;;2087436;28;20021;-68
2021/05/09 03:07:14;;;;;;;2.47;1.45;;;14.70;99.90;;;;;;2087686;28;20432;-67
2021/05/09 03:08:14;;;;;;;3.33;1.25;;;14.70;99.90;;;;;;2087419;28;20086;-68
2021/05/09 03:09:15;;;;;;;2.10;1.40;;;14.70;99.90;;;;;;2087534;28;20429;-67
2021/05/09 03:10:15;;;;;;;2.28;1.67;;;14.70;99.90;;;;;;2087196;28;20025;-67
2021/05/09 03:11:16;;;;;;;2.15;1.30;;;14.70;99.90;;;;;;2086599;28;20028;-67
2021/05/09 03:12:16;;;;;;;4.47;1.60;;;14.70;99.90;;;;;;2086600;28;20518;-67
2021/05/09 03:13:18;;;;;;;1.63;1.30;;;14.70;99.90;;;;;;2087114;28;20113;-68
2021/05/09 03:14:18;;;;;;;2.80;1.67;;;14.70;99.90;;;;;;2087168;28;20055;-68
2021/05/09 03:15:19;;;;;;;1.48;1.38;;;14.70;99.90;;;;;;2087263;28;20036;-67
2021/05/09 03:16:19;;;;;;;2.72;1.65;;;14.70;99.90;;;;;;2087114;28;20053;-67
2021/05/09 03:17:20;;;;;;;2.40;1.33;;;14.70;99.90;;;;;;2087015;28;20020;-67
2021/05/09 03:18:20;;;;;;;1.73;1.48;;;14.70;99.90;;;;;;2087081;28;20017;-68
2021/05/09 03:19:21;;;;;;;2.50;1.20;;;14.70;99.90;;;;;;2081178;28;20040;-68
2021/05/09 03:20:21;;;;;;;2.10;1.58;;;14.70;99.90;;;;;;2085369;28;20020;-68
2021/05/09 03:21:22;;;;;;;2.42;1.63;;;14.70;99.90;;;;;;2081646;28;20741;-67
2021/05/09 03:22:23;;;;;;;1.92;1.52;;;14.70;99.90;;;;;;2086608;28;20036;-67
2021/05/09 03:23:24;;;;;;;2.00;1.48;;;14.70;99.90;;;;;;2086843;28;20021;-68
2021/05/09 03:24:24;;;;;;;2.75;1.50;;;14.70;99.90;;;;;;2086924;28;20053;-67
2021/05/09 03:25:25;;;;;;;3.45;1.65;;;14.70;99.90;;;;;;2086700;28;20466;-72
2021/05/09 03:26:25;;;;;;;2.50;1.80;;;14.70;99.90;;;;;;2083100;28;20025;-68
2021/05/09 03:27:26;;;;;;;1.55;1.10;;;14.70;99.90;;;;;;2078504;28;20468;-68
2021/05/09 03:28:26;;;;;;;3.25;1.38;;;14.70;99.90;;;;;;2079128;28;20037;-67
2021/05/09 03:29:27;;;;;;;1.88;1.67;;;14.70;99.90;;;;;;2078674;28;20104;-68
2021/05/09 03:30:27;;;;;;;2.10;1.67;;;14.70;99.90;;;;;;2079123;28;20029;-67
2021/05/09 03:31:28;;;;;;;2.40;1.38;;;14.70;99.90;;;;;;2078833;28;20034;-68
2021/05/09 03:32:28;;;;;;;5.25;1.60;;;14.70;99.90;;;;;;2078207;28;20487;-67
2021/05/09 03:33:29;;;;;;;1.88;1.40;;;14.70;99.90;;;;;;2083843;28;20116;-67
2021/05/09 03:34:29;;;;;;;1.63;1.25;;;14.70;99.90;;;;;;2082543;28;20022;-67
2021/05/09 03:35:30;;;;;;;1.27;1.02;;;14.70;99.90;;;;;;2083037;28;20065;-67
2021/05/09 03:36:30;;;;;;;1.30;1.20;;;14.70;99.90;;;;;;2085896;28;20025;-68
2021/05/09 03:37:31;;;;;;;1.70;1.30;;;14.70;99.90;;;;;;2082434;28;20112;-67
2021/05/09 03:38:31;;;;;;;2.03;1.52;;;14.70;99.90;;;;;;2080588;28;20380;-67
2021/05/09 03:39:32;;;;;;;1.70;1.60;;;14.70;99.90;;;;;;2083764;28;20029;-67
2021/05/09 03:40:33;;;;;;;2.80;1.65;;;14.70;99.90;;;;;;2088606;28;20393;-67
2021/05/09 03:41:33;;;;;;;1.98;1.38;;;14.70;99.90;;;;;;2088318;28;20055;-67
2021/05/09 03:42:34;;;;;;;2.08;1.33;;;14.70;99.90;;;;;;2079785;28;20040;-67
2021/05/09 03:43:35;;;;;;;1.98;1.50;;;14.70;99.90;;;;;;2080079;28;20087;-67
2021/05/09 03:44:36;;;;;;;2.80;1.50;;;14.70;99.90;;;;;;2079408;28;20026;-68
2021/05/09 03:45:36;;;;;;;1.88;1.45;;;14.70;99.90;;;;;;2080003;28;20030;-68
2021/05/09 03:46:37;;;;;;;8.70;1.67;;;14.70;99.90;;;;;;2088014;28;20028;-68
2021/05/09 03:47:38;;;;;;;3.13;1.55;;;14.70;99.90;;;;;;2087810;28;20025;-68
2021/05/09 03:48:38;;;;;;;4.22;1.13;;;14.70;99.90;;;;;;2082695;28;20037;-67
2021/05/09 03:49:39;;;;;;;3.25;1.38;;;14.70;99.90;;;;;;2086976;28;20143;-67
2021/05/09 03:50:40;;;;;;;1.58;1.33;;;14.70;99.90;;;;;;2086194;28;20033;-68
2021/05/09 03:51:40;;;;;;;2.28;1.40;;;14.70;99.90;;;;;;2080215;28;20036;-68
2021/05/09 03:52:41;;;;;;;1.30;1.20;;;14.70;99.90;;;;;;2084028;28;20025;-67
2021/05/09 03:53:41;;;;;;;1.77;1.35;;;14.70;99.90;;;;;;2087563;28;20033;-68
2021/05/09 03:54:42;;;;;;;3.80;1.20;;;14.70;99.90;;;;;;2088439;28;20417;-68
2021/05/09 03:55:42;;;;;;;1.70;1.30;;;14.70;99.90;;;;;;2088059;28;20045;-68
2021/05/09 03:56:43;;;;;;;3.83;1.20;;;14.70;99.90;;;;;;2083269;28;20033;-68
2021/05/09 03:57:43;;;;;;;2.75;1.33;;;14.70;99.90;;;;;;2086905;28;20029;-67
2021/05/09 03:58:44;;;;;;;1.50;1.20;;;14.70;99.90;;;;;;2088007;28;20550;-67
2021/05/09 03:59:45;;;;;;;2.40;1.30;;;14.70;99.90;;;;;;2088373;28;20477;-67
2021/05/09 04:00:46;;;;;;;2.15;1.70;;;14.70;99.90;;;;;;2088319;28;20025;-68
2021/05/09 04:01:46;;;;;;;2.47;1.63;;;14.70;99.90;;;;;;2088551;28;20029;-68
2021/05/09 04:02:47;;;;;;;4.60;1.40;;;14.80;99.90;;;;;;2087868;28;20938;-67
2021/05/09 04:03:48;;;;;;;1.75;1.17;;;14.70;99.90;;;;;;2088107;28;20029;-67
2021/05/09 04:04:48;;;;;;;5.18;1.55;;;14.70;99.90;;;;;;2088242;28;20394;-67
2021/05/09 04:05:53;;;;;;;1.83;1.50;;;14.80;99.90;;;;;;2088310;28;20028;-67
2021/05/09 04:06:53;;;;;;;1.30;1.20;;;14.80;99.90;;;;;;2087522;28;20187;-67
2021/05/09 04:07:54;;;;;;;1.38;1.27;;;14.80;99.90;;;;;;2087812;28;20025;-68
2021/05/09 04:08:54;;;;;;;1.50;1.40;;;14.80;99.90;;;;;;2088457;28;20090;-67
2021/05/09 04:09:55;;;;;;;2.65;1.60;;;14.70;99.90;;;;;;2088188;28;20082;-67
2021/05/09 04:10:57;;;;;;;2.85;1.75;;;14.80;99.90;;;;;;2085950;28;20033;-67
2021/05/09 04:11:58;;;;;;;2.25;1.45;;;14.80;99.90;;;;;;2084446;28;20085;-67
2021/05/09 04:12:58;;;;;;;1.63;1.48;;;14.80;99.90;;;;;;2087954;28;20755;-68
2021/05/09 04:13:59;;;;;;;3.15;1.50;;;14.80;99.90;;;;;;2088111;28;20467;-67
2021/05/09 04:15:00;;;;;;;1.77;1.48;;;14.80;99.90;;;;;;2088185;28;20024;-68
2021/05/09 04:16:01;;;;;;;1.63;1.48;;;14.80;99.90;;;;;;2088367;28;20032;-68
2021/05/09 04:17:02;;;;;;;5.03;1.38;;;14.80;99.90;;;;;;2087376;28;20052;-68
2021/05/09 04:18:02;;;;;;;2.47;1.10;;;14.80;99.90;;;;;;2087518;28;20148;-67
2021/05/09 04:19:03;;;;;;;1.65;1.30;;;14.80;99.90;;;;;;2088140;28;20029;-68
2021/05/09 04:20:04;;;;;;;1.58;1.38;;;14.80;99.90;;;;;;2088276;28;20025;-68
2021/05/09 04:21:05;;;;;;;1.73;1.30;;;14.80;99.90;;;;;;2088260;28;20040;-67
2021/05/09 04:22:06;;;;;;;3.03;1.40;;;14.80;99.90;;;;;;2087999;28;20107;-67
2021/05/09 04:23:07;;;;;;;1.83;1.33;;;14.80;99.90;;;;;;2087848;28;20021;-68
2021/05/09 04:24:08;;;;;;;1.27;1.17;;;14.90;99.90;;;;;;2088135;28;20056;-68
2021/05/09 04:25:09;;;;;;;1.23;1.13;;;14.90;99.90;;;;;;2087753;28;20180;-67
2021/05/09 04:26:10;;;;;;;3.20;1.45;;;14.90;99.90;;;;;;2081555;28;20033;-67
2021/05/09 04:27:10;;;;;;;1.25;1.17;;;14.90;99.90;;;;;;2087021;28;20017;-67
2021/05/09 04:28:11;;;;;;;1.88;1.42;;;14.90;99.90;;;;;;2081111;28;20024;-67
2021/05/09 04:29:11;;;;;;;1.60;1.10;;;14.90;99.90;;;;;;2080043;28;20038;-68
2021/05/09 04:30:12;;;;;;;2.22;1.40;;;14.90;99.90;;;;;;2079562;28;20033;-68
2021/05/09 04:31:13;;;;;;;2.83;1.20;;;14.90;99.90;;;;;;2080440;28;20104;-68
2021/05/09 04:32:13;;;;;;;3.30;1.38;;;14.90;99.90;;;;;;2079269;28;20037;-68
2021/05/09 04:33:15;;;;;;;1.63;1.20;;;14.90;99.90;;;;;;2086477;28;20024;-68
2021/05/09 04:34:15;;;;;;;2.53;1.20;;;14.90;99.90;;;;;;2087879;28;20069;-68
2021/05/09 04:35:16;;;;;;;1.10;1.00;;;14.90;99.90;;;;;;2088441;28;20048;-68
2021/05/09 04:36:16;;;;;;;1.33;1.23;;;14.90;99.90;;;;;;2087703;28;20032;-67
2021/05/09 04:37:17;;;;;;;1.67;1.40;;;14.90;99.90;;;;;;2088113;28;20465;-68
2021/05/09 04:38:18;;;;;;;1.65;1.20;;;15.00;99.90;;;;;;2088153;28;20082;-67
2021/05/09 04:39:19;;;;;;;1.50;1.10;;;14.90;99.90;;;;;;2088017;28;20017;-67
2021/05/09 04:40:19;;;;;;;2.63;1.40;;;15.00;99.90;;;;;;2083234;28;20049;-67
2021/05/09 04:41:20;;;;;;;2.70;1.33;;;15.00;99.90;;;;;;2086501;28;20024;-67
2021/05/09 04:42:21;;;;;;;2.20;1.33;;;15.00;99.90;;;;;;2087267;28;20028;-67
2021/05/09 04:43:22;;;;;;;3.25;1.45;;;15.00;99.90;;;;;;2088430;28;20017;-67
2021/05/09 04:44:23;;;;;;;1.02;1.02;;;15.00;99.90;;;;;;2087508;28;20100;-68
2021/05/09 04:45:23;;;;;;;2.22;1.67;;;15.00;99.90;;;;;;2086875;28;20098;-68
2021/05/09 04:46:25;;;;;;;2.45;1.30;;;15.00;99.90;;;;;;2080150;28;20029;-68
2021/05/09 04:47:25;;;;;;;1.95;1.55;;;15.00;99.90;;;;;;2083644;28;20047;-67
2021/05/09 04:48:26;;;;;;;1.65;1.20;;;15.10;99.90;;;;;;2087754;28;20526;-67
2021/05/09 04:49:27;;;;;;;1.52;1.33;;;15.10;99.90;;;;;;2087911;28;20056;-67
2021/05/09 04:50:28;;;;;;;1.20;1.10;;;15.10;99.90;;;;;;2087525;28;20032;-67
2021/05/09 04:51:29;;;;;;;1.98;1.13;;;15.10;99.90;;;;;;2080017;28;20033;-68
2021/05/09 04:52:29;;;;;;;3.20;1.50;;;15.20;99.90;;;;;;2082757;28;20033;-68
2021/05/09 04:53:31;;;;;;;2.83;1.10;;;15.20;99.90;;;;;;2088064;28;20021;-68
2021/05/09 04:54:32;;;;;;;4.47;1.42;;;15.20;99.90;;;;;;2081838;28;20052;-67
2021/05/09 04:55:32;;;;;;;1.92;1.20;;;15.30;99.90;;;;;;2084956;28;20045;-67
2021/05/09 04:56:33;;;;;;;3.22;1.17;;;15.30;99.90;;;;;;2087853;28;20027;-67
2021/05/09 04:57:34;;;;;;;1.10;1.00;;;15.40;99.90;;;;;;2084816;28;20033;-67
2021/05/09 04:58:39;;;;;;;1.30;1.20;;;15.40;99.90;;;;;;2087662;28;20020;-67
2021/05/09 04:59:39;;;;;;;1.65;1.23;;;15.50;99.90;;;;;;2087939;28;20035;-67
2021/05/09 05:00:40;;;;;;;1.70;1.20;;;15.60;99.90;;;;;;2087680;28;20075;-67
2021/05/09 05:01:40;;;;;;;2.97;1.33;;;15.70;99.90;;;;;;2088094;28;20053;-68
2021/05/09 05:02:46;;;;;;;4.30;1.52;;;15.80;99.90;;;;;;2087284;28;20396;-68
2021/05/09 05:03:47;;;;;;;2.33;1.48;;;15.80;99.90;;;;;;2087871;28;20582;-68
2021/05/09 05:04:48;;;;;;;3.53;1.40;;;15.90;99.90;;;;;;2087837;28;20055;-67
2021/05/09 05:05:48;;;;;;;1.25;1.15;;;16.00;99.90;;;;;;2087819;28;20475;-68
2021/05/09 05:06:49;;;;;;;2.00;1.38;;;16.10;99.90;;;;;;2088008;28;20032;-68
2021/05/09 05:07:50;;;;;;;1.95;1.25;;;16.10;99.90;;;;;;2087683;28;20025;-68
2021/05/09 05:08:51;;;;;;;2.08;1.20;;;16.20;99.90;;;;;;2083455;28;20034;-68
2021/05/09 05:09:52;;;;;;;1.55;1.20;;;16.30;99.90;;;;;;2079362;28;20049;-67
2021/05/09 05:10:52;;;;;;;1.48;1.08;;;16.40;99.90;;;;;;2087479;28;20143;-68
2021/05/09 05:11:54;;;;;;;1.80;1.17;;;16.50;99.90;;;;;;2087872;28;20033;-68
2021/05/09 05:12:54;;;;;;;2.13;1.42;;;16.50;99.90;;;;;;2087231;28;20017;-68
2021/05/09 05:13:55;;;;;;;2.40;1.23;;;16.60;99.90;;;;;;2087628;28;20132;-68
2021/05/09 05:14:56;;;;;;;1.65;1.00;;;16.70;99.90;;;;;;2087446;28;20443;-68
2021/05/09 05:15:57;;;;;;;2.08;1.33;;;16.80;99.50;;;;;;2087922;28;20112;-68
2021/05/09 05:16:58;;;;;;;1.30;1.20;;;16.80;99.40;;;;;;2087262;28;20029;-68
2021/05/09 05:17:58;;;;;;;2.50;1.15;;;16.90;99.00;;;;;;2086913;28;20100;-68